ADDS - METARS form results

Aviation Digital Data Service (ADDS)

Output produced by METARs form (1700 UTC 30 September 2022)
found at http://aviationweather.gov/metar/data/
 
METAR text: KPNT 301630Z AUTO 07005KT 10SM CLR 17/10 A3031 RMK AO2 T01720095
Conditions at: KPNT (PONTIAC , IL, US) observed 1630 UTC 30 September 2022
Temperature: 17.2°C (63°F)
Dewpoint: 9.5°C (49°F) [RH = 61%]
Pressure (altimeter): 30.31 inches Hg (1026.5 mb)
Winds: from the ENE (70 degrees) at 6 MPH (5 knots; 2.6 m/s)
Visibility: 10 or more miles (16+ km)
Ceiling: at least 12,000 feet AGL
Clouds: sky clear below 12,000 feet AGL
Weather: automated observation with no human augmentation;
there may or may not be significant weather present at this time

METAR text: KPNT 301610Z AUTO 11005KT 10SM CLR 17/10 A3032 RMK AO2 T01680101
Conditions at: KPNT (PONTIAC , IL, US) observed 1610 UTC 30 September 2022
Temperature: 16.8°C (62°F)
Dewpoint: 10.1°C (50°F) [RH = 65%]
Pressure (altimeter): 30.32 inches Hg (1026.8 mb)
Winds: from the ESE (110 degrees) at 6 MPH (5 knots; 2.6 m/s)
Visibility: 10 or more miles (16+ km)
Ceiling: at least 12,000 feet AGL
Clouds: sky clear below 12,000 feet AGL
Weather: automated observation with no human augmentation;
there may or may not be significant weather present at this time